Time;durP1;ratioP1;P1;durP2;ratioP2;P2;SDS_P1;SDS_P2;PMS_P1;PMS_P2;Temp;Humidity;BMP_temperature;BMP_pressure;BME280_temperature;BME280_humidity;BME280_pressure;Samples;Min_cycle;Max_cycle;Signal;HPM_P1;HPM_P2
2020/12/02 00:02:29;;;;;;;;;;;;;;;-3.42;100.00;101618.16;5093659;28;20031;-66
2020/12/02 00:04:56;;;;;;;;;;;;;;;-3.47;100.00;101621.75;5093596;28;19924;-66
2020/12/02 00:07:23;;;;;;;;;;;;;;;-3.54;100.00;101624.44;5093410;28;20346;-66
2020/12/02 00:09:49;;;;;;;;;;;;;;;-3.55;100.00;101622.69;5093526;28;20023;-66
2020/12/02 00:12:15;;;;;;;;;;;;;;;-3.57;100.00;101620.94;5093661;28;19924;-66
2020/12/02 00:14:41;;;;;;;;;;;;;;;-3.57;100.00;101619.16;5093461;28;20431;-66
2020/12/02 00:17:14;;;;;;;;;;;;;;;-3.59;100.00;101623.59;5092751;28;20065;-66
2020/12/02 00:19:41;;;;;;;;;;;;;;;-3.64;100.00;101627.19;5093327;28;19963;-66
2020/12/02 00:22:07;;;;;;;;;;;;;;;-3.68;100.00;101633.41;5093245;28;20279;-66
2020/12/02 00:24:34;;;;;;;;;;;;;;;-3.73;100.00;101629.03;5093280;28;19928;-66
2020/12/02 00:27:00;;;;;;;;;;;;;;;-3.74;100.00;101627.25;5093109;28;20447;-66
2020/12/02 00:29:26;;;;;;;;;;;;;;;-3.70;100.00;101622.81;5093016;28;20022;-66
2020/12/02 00:31:52;;;;;;;;;;;;;;;-3.71;100.00;101621.91;5093139;28;19931;-66
2020/12/02 00:34:18;;;;;;;;;;;;;;;-3.76;100.00;101614.91;5092856;28;19978;-66
2020/12/02 00:36:44;;;;;;;;;;;;;;;-3.77;100.00;101623.75;5092858;28;20491;-66
2020/12/02 00:39:10;;;;;;;;;;;;;;;-3.77;100.00;101629.03;5093060;28;20328;-69
2020/12/02 00:41:36;;;;;;;;;;;;;;;-3.79;100.00;101631.72;5091792;28;19927;-68
2020/12/02 00:44:02;;;;;;;;;;;;;;;-3.82;100.00;101634.41;5092890;28;19978;-66
2020/12/02 00:46:28;;;;;;;;;;;;;;;-3.84;100.00;101622.91;5092726;28;20007;-66
2020/12/02 00:48:54;;;;;;;;;;;;;;;-3.87;100.00;101629.13;5092660;28;20026;-67
2020/12/02 00:51:22;;;;;;;;;;;;;;;-3.87;100.00;101634.41;5092834;28;19931;-66
2020/12/02 00:53:49;;;;;;;;;;;;;;;-3.84;100.00;101641.47;5091152;28;20336;-66
2020/12/02 00:56:16;;;;;;;;;;;;;;;-3.84;100.00;101637.97;5091214;28;19924;-66
2020/12/02 00:58:49;;;;;;;;;;;;;;;-3.85;100.00;101631.75;5092677;28;19994;-67
2020/12/02 01:01:19;;;;;;;;;;;;;;;-3.91;100.00;101635.34;5092817;28;19924;-66
2020/12/02 01:03:46;;;;;;;;;;;;;;;-3.93;100.00;101634.47;5091197;28;20023;-66
2020/12/02 01:06:12;;;;;;;;;;;;;;;-3.96;100.00;101634.47;5092162;28;20309;-66
2020/12/02 01:08:39;;;;;;;;;;;;;;;-4.00;100.00;101632.75;5092448;28;19924;-67
2020/12/02 01:11:09;;;;;;;;;;;;;;;-4.04;100.00;101631.00;5091974;28;20035;-66
2020/12/02 01:13:35;;;;;;;;;;;;;;;-4.05;100.00;101631.88;5092389;28;19955;-66
2020/12/02 01:16:03;;;;;;;;;;;;;;;-4.06;100.00;101633.66;5092030;28;19924;-66
2020/12/02 01:18:29;;;;;;;;;;;;;;;-4.06;100.00;101624.84;5092243;28;20010;-67
2020/12/02 01:20:59;;;;;;;;;;;;;;;-4.05;100.00;101624.81;5092154;28;19924;-66
2020/12/02 01:23:26;;;;;;;;;;;;;;;-4.05;100.00;101630.13;5092206;28;19924;-66
2020/12/02 01:25:52;;;;;;;;;;;;;;;-4.04;100.00;101631.88;5092098;28;20011;-67
2020/12/02 01:28:21;;;;;;;;;;;;;;;-4.08;100.00;101630.13;5091570;28;20019;-67
2020/12/02 01:30:49;;;;;;;;;;;;;;;-4.13;100.00;101631.06;5092066;28;20388;-66
2020/12/02 01:33:15;;;;;;;;;;;;;;;-4.13;100.00;101636.34;5092034;28;20001;-66
2020/12/02 01:35:43;;;;;;;;;;;;;;;-4.10;100.00;101631.94;5091903;28;19970;-67
2020/12/02 01:38:09;;;;;;;;;;;;;;;-4.07;100.00;101628.38;5091421;28;20010;-66
2020/12/02 01:40:35;;;;;;;;;;;;;;;-4.07;100.00;101626.59;5091755;28;20012;-66
2020/12/02 01:43:03;;;;;;;;;;;;;;;-4.06;100.00;101635.44;5091706;28;19956;-66
2020/12/02 01:45:30;;;;;;;;;;;;;;;-4.08;100.00;101635.44;5091521;28;20026;-66
2020/12/02 01:48:09;;;;;;;;;;;;;;;-4.07;100.00;101636.34;5091346;28;20023;-66
2020/12/02 01:50:38;;;;;;;;;;;;;;;-4.04;100.00;101636.31;5091692;28;20020;-66
2020/12/02 01:53:07;;;;;;;;;;;;;;;-4.03;100.00;101640.72;5091673;28;19928;-67
2020/12/02 01:55:36;;;;;;;;;;;;;;;-4.01;100.00;101636.28;5091824;28;20290;-67
2020/12/02 01:58:08;;;;;;;;;;;;;;;-3.96;100.00;101628.31;5091292;28;20018;-66
2020/12/02 02:00:36;;;;;;;;;;;;;;;-3.95;100.00;101625.63;5091568;28;20020;-66
2020/12/02 02:03:07;;;;;;;;;;;;;;;-3.96;100.00;101628.31;5091198;28;20034;-66
2020/12/02 02:05:37;;;;;;;;;;;;;;;-3.99;100.00;101629.19;5091694;28;19974;-67
2020/12/02 02:08:03;;;;;;;;;;;;;;;-4.01;100.00;101627.44;5091117;28;20396;-67
2020/12/02 02:10:32;;;;;;;;;;;;;;;-4.03;100.00;101630.13;5091225;28;19974;-67
2020/12/02 02:13:12;;;;;;;;;;;;;;;-4.04;100.00;101631.88;5089475;28;20312;-66
2020/12/02 02:15:45;;;;;;;;;;;;;;;-4.06;100.00;101630.16;5091357;28;20472;-67
2020/12/02 02:18:12;;;;;;;;;;;;;;;-4.12;100.00;101630.16;5091208;28;20087;-67
2020/12/02 02:20:39;;;;;;;;;;;;;;;-4.16;100.00;101620.47;5091229;28;19924;-67
2020/12/02 02:23:05;;;;;;;;;;;;;;;-4.15;100.00;101617.81;5091196;28;21027;-67
2020/12/02 02:25:31;;;;;;;;;;;;;;;-4.14;100.00;101618.66;5091339;28;19971;-67
2020/12/02 02:27:58;;;;;;;;;;;;;;;-4.17;100.00;101621.34;5091124;28;19970;-67
2020/12/02 02:30:24;;;;;;;;;;;;;;;-4.23;100.00;101625.78;5091154;28;19963;-67
2020/12/02 02:32:51;;;;;;;;;;;;;;;-4.25;100.00;101622.28;5091190;28;19974;-67
2020/12/02 02:35:16;;;;;;;;;;;;;;;-4.28;100.00;101619.63;5091435;28;19978;-67
2020/12/02 02:37:42;;;;;;;;;;;;;;;-4.25;100.00;101627.59;5091059;28;19924;-67
2020/12/02 02:40:10;;;;;;;;;;;;;;;-4.23;100.00;101615.19;5090699;28;20431;-67
2020/12/02 02:42:38;;;;;;;;;;;;;;;-4.14;100.00;101619.56;5091276;28;19924;-67
2020/12/02 02:45:08;;;;;;;;;;;;;;;-4.07;100.00;101615.97;5091205;28;19928;-66
2020/12/02 02:47:34;;;;;;;;;;;;;;;-4.01;100.00;101612.41;5090936;28;19981;-66
2020/12/02 02:50:00;;;;;;;;;;;;;;;-3.92;100.00;101612.34;5092896;28;20023;-67
2020/12/02 02:52:26;;;;;;;;;;;;;;;-3.77;100.00;101611.38;5095300;28;19928;-67
2020/12/02 02:54:52;;;;;;;;;;;;;;;-3.63;100.00;101616.56;5095065;28;19924;-67
2020/12/02 02:57:17;;;;;;;;;;;;;;;-3.54;100.00;101619.13;5094764;28;19931;-67
2020/12/02 02:59:43;;;;;;;;;;;;;;;-3.47;100.00;101613.78;5094711;28;19924;-67
2020/12/02 03:02:11;;;;;;;;;;;;;;;-3.43;100.00;101610.22;5095127;28;19924;-67
2020/12/02 03:04:37;;;;;;;;;;;;;;;-3.39;100.00;101604.84;5095000;28;19924;-67
2020/12/02 03:07:03;;;;;;;;;;;;;;;-3.30;100.00;101613.59;5094564;28;19928;-67
2020/12/02 03:09:29;;;;;;;;;;;;;;;-3.25;100.00;101612.66;5094774;28;19928;-67
2020/12/02 03:11:55;;;;;;;;;;;;;;;-3.21;100.00;101610.88;5093357;28;19924;-67
2020/12/02 03:14:21;;;;;;;;;;;;;;;-3.18;100.00;101608.16;5094587;28;19928;-67
2020/12/02 03:16:49;;;;;;;;;;;;;;;-3.13;100.00;101613.44;5094321;28;20373;-67
2020/12/02 03:19:18;;;;;;;;;;;;;;;-3.11;100.00;101614.34;5094333;28;19924;-67
2020/12/02 03:21:44;;;;;;;;;;;;;;;-3.07;100.00;101613.41;5095612;28;19993;-67
2020/12/02 03:24:10;;;;;;;;;;;;;;;-3.05;100.00;101611.59;5094409;28;20401;-68
2020/12/02 03:26:37;;;;;;;;;;;;;;;-3.08;100.00;101604.53;5094306;28;19924;-67
2020/12/02 03:29:03;;;;;;;;;;;;;;;-3.08;100.00;101607.19;5094354;28;20477;-67
2020/12/02 03:31:29;;;;;;;;;;;;;;;-3.10;100.00;101605.44;5093027;28;19924;-67
2020/12/02 03:33:55;;;;;;;;;;;;;;;-3.11;100.00;101601.06;5094342;28;19937;-67
2020/12/02 03:36:22;;;;;;;;;;;;;;;-3.11;100.00;101603.72;5094201;28;19950;-67
2020/12/02 03:38:48;;;;;;;;;;;;;;;-3.11;100.00;101609.03;5093931;28;20019;-67
2020/12/02 03:41:14;;;;;;;;;;;;;;;-3.13;100.00;101595.72;5094066;28;19971;-67
2020/12/02 03:43:40;;;;;;;;;;;;;;;-3.16;100.00;101600.22;5094168;28;19955;-67
2020/12/02 03:46:06;;;;;;;;;;;;;;;-3.21;100.00;101601.16;5092551;28;20255;-67
2020/12/02 03:48:33;;;;;;;;;;;;;;;-3.25;100.00;101594.06;5094024;28;21815;-67
2020/12/02 03:50:59;;;;;;;;;;;;;;;-3.28;100.00;101585.28;5093949;28;20468;-67
2020/12/02 03:53:25;;;;;;;;;;;;;;;-3.31;100.00;101588.84;5093950;28;19959;-67
2020/12/02 03:55:51;;;;;;;;;;;;;;;-3.33;100.00;101582.66;5093747;28;20041;-67
2020/12/02 03:58:17;;;;;;;;;;;;;;;-3.34;100.00;101591.53;5093644;28;20030;-67
2020/12/02 04:00:44;;;;;;;;;;;;;;;-3.37;100.00;101584.47;5093346;28;20351;-67
2020/12/02 04:03:10;;;;;;;;;;;;;;;-3.38;100.00;101593.34;5093739;28;19959;-67
2020/12/02 04:05:36;;;;;;;;;;;;;;;-3.41;100.00;101587.16;5092655;28;20384;-67
2020/12/02 04:08:02;;;;;;;;;;;;;;;-3.42;100.00;101580.09;5092919;28;19924;-67
2020/12/02 04:10:28;;;;;;;;;;;;;;;-3.42;100.00;101583.63;5093495;28;19924;-67
2020/12/02 04:12:54;;;;;;;;;;;;;;;-3.40;100.00;101586.28;5093379;28;20018;-67
2020/12/02 04:15:20;;;;;;;;;;;;;;;-3.42;100.00;101580.09;5093429;28;20347;-67
2020/12/02 04:17:46;;;;;;;;;;;;;;;-3.41;100.00;101582.75;5093383;28;19927;-67
2020/12/02 04:20:13;;;;;;;;;;;;;;;-3.42;100.00;101573.00;5093577;28;19924;-67
2020/12/02 04:22:38;;;;;;;;;;;;;;;-3.40;100.00;101579.19;5093413;28;20109;-67
2020/12/02 04:25:05;;;;;;;;;;;;;;;-3.40;100.00;101570.34;5093321;28;19947;-67
2020/12/02 04:27:32;;;;;;;;;;;;;;;-3.41;100.00;101573.88;5093155;28;20023;-67
2020/12/02 04:29:57;;;;;;;;;;;;;;;-3.41;100.00;101572.13;5093111;28;20343;-67
2020/12/02 04:32:23;;;;;;;;;;;;;;;-3.40;100.00;101567.69;5092948;28;19931;-67
2020/12/02 04:34:49;;;;;;;;;;;;;;;-3.41;100.00;101574.78;5093029;28;19947;-67
2020/12/02 04:37:15;;;;;;;;;;;;;;;-3.40;100.00;101570.34;5092903;28;19924;-66
2020/12/02 04:39:41;;;;;;;;;;;;;;;-3.41;100.00;101573.88;5092909;28;19970;-67
2020/12/02 04:42:08;;;;;;;;;;;;;;;-3.42;100.00;101570.38;5092907;28;20026;-67
2020/12/02 04:44:35;;;;;;;;;;;;;;;-3.40;100.00;101565.03;5093097;28;20015;-67
2020/12/02 04:47:01;;;;;;;;;;;;;;;-3.40;100.00;101565.91;5092740;28;20451;-67
2020/12/02 04:49:29;;;;;;;;;;;;;;;-3.37;100.00;101571.19;5092539;28;19928;-67
2020/12/02 04:51:57;;;;;;;;;;;;;;;-3.32;100.00;101567.63;5092867;28;19966;-67
2020/12/02 04:54:23;;;;;;;;;;;;;;;-3.29;100.00;101565.78;5092992;28;19993;-67
2020/12/02 04:56:49;;;;;;;;;;;;;;;-3.25;100.00;101571.97;5092700;28;20424;-67
2020/12/02 04:59:14;;;;;;;;;;;;;;;-3.24;100.00;101569.28;5092708;28;19924;-67
2020/12/02 05:01:49;;;;;;;;;;;;;;;-3.22;100.00;101570.16;5092820;28;19924;-67
2020/12/02 05:04:16;;;;;;;;;;;;;;;-3.17;100.00;101571.88;5092746;28;20044;-67
2020/12/02 05:06:43;;;;;;;;;;;;;;;-3.14;100.00;101559.47;5092439;28;20037;-67
2020/12/02 05:09:12;;;;;;;;;;;;;;;-3.08;100.00;101566.47;5090949;28;20031;-67
2020/12/02 05:11:38;;;;;;;;;;;;;;;-3.04;100.00;101566.41;5092119;28;19924;-67
2020/12/02 05:14:05;;;;;;;;;;;;;;;-2.99;100.00;101558.41;5092291;28;19981;-66
2020/12/02 05:16:31;;;;;;;;;;;;;;;-2.96;100.00;101555.69;5092429;28;19977;-66
2020/12/02 05:19:02;;;;;;;;;;;;;;;-2.92;100.00;101559.22;5092323;28;19931;-66
2020/12/02 05:21:32;;;;;;;;;;;;;;;-2.91;100.00;101553.88;5092284;28;19947;-66
2020/12/02 05:24:02;;;;;;;;;;;;;;;-2.92;100.00;101553.88;5092338;28;20015;-66
2020/12/02 05:26:29;;;;;;;;;;;;;;;-2.94;100.00;101555.66;5091706;28;20452;-67
2020/12/02 05:28:54;;;;;;;;;;;;;;;-2.94;100.00;101559.22;5092120;28;20018;-66
2020/12/02 05:31:22;;;;;;;;;;;;;;;-2.90;100.00;101555.63;5092233;28;19973;-66
2020/12/02 05:33:48;;;;;;;;;;;;;;;-2.84;100.00;101552.00;5091043;28;19930;-66
2020/12/02 05:36:16;;;;;;;;;;;;;;;-2.83;100.00;101547.56;5094193;28;20388;-66
2020/12/02 05:38:43;;;;;;;;;;;;;;;-2.83;100.00;101548.47;5103096;28;19923;-66
2020/12/02 05:41:11;;;;;;;;;;;;;;;-2.81;100.00;101548.44;5091882;28;20290;-66
2020/12/02 05:43:39;;;;;;;;;;;;;;;-2.79;100.00;101552.84;5091935;28;20023;-66
2020/12/02 05:46:10;;;;;;;;;;;;;;;-2.81;100.00;101549.31;5091496;28;19970;-66
2020/12/02 05:48:39;;;;;;;;;;;;;;;-2.76;100.00;101554.59;5091725;28;20019;-66
2020/12/02 05:51:05;;;;;;;;;;;;;;;-2.73;100.00;101550.09;5071463;28;20052;-69
2020/12/02 05:53:34;;;;;;;;;;;;;;;-2.71;100.00;101550.97;5071438;28;20015;-67
2020/12/02 05:56:01;;;;;;;;;;;;;;;-2.66;100.00;101545.56;5108535;28;20304;-67
2020/12/02 05:58:28;;;;;;;;;;;;;;;-2.66;100.00;101548.22;5094046;28;20038;-67
2020/12/02 06:00:54;;;;;;;;;;;;;;;-2.65;100.00;101559.75;5091438;28;19931;-68
2020/12/02 06:03:30;;;;;;;;;;;;;;;-2.62;100.00;101554.38;5108122;28;20349;-67
2020/12/02 06:06:00;;;;;;;;;;;;;;;-2.60;100.00;101550.81;5112031;28;19924;-67
2020/12/02 06:08:31;;;;;;;;;;;;;;;-2.61;100.00;101554.38;5094631;28;20014;-67
2020/12/02 06:11:18;;;;;;;;;;;;;;;-2.56;100.00;101549.88;5091541;28;19971;-67
2020/12/02 06:13:45;;;;;;;;;;;;;;;-2.56;100.00;101554.31;5100355;28;19924;-67
2020/12/02 06:16:11;;;;;;;;;;;;;;;-2.58;100.00;101549.03;5091565;28;20027;-67
2020/12/02 06:18:37;;;;;;;;;;;;;;;-2.56;100.00;101549.88;5091175;28;20433;-67
2020/12/02 06:21:03;;;;;;;;;;;;;;;-2.58;100.00;101549.03;5091966;28;20495;-66
2020/12/02 06:23:33;;;;;;;;;;;;;;;-2.59;100.00;101549.94;5091284;28;19950;-67
2020/12/02 06:26:00;;;;;;;;;;;;;;;-2.59;100.00;101555.25;5093503;28;19924;-67
2020/12/02 06:28:45;;;;;;;;;;;;;;;-2.59;100.00;101557.91;5095648;28;20019;-67
2020/12/02 06:31:13;;;;;;;;;;;;;;;-2.62;100.00;101559.72;5110255;28;19955;-67
2020/12/02 06:33:39;;;;;;;;;;;;;;;-2.63;100.00;101550.88;5115950;28;19987;-67
2020/12/02 06:36:17;;;;;;;;;;;;;;;-2.64;100.00;101553.56;5100658;28;20433;-67
2020/12/02 06:38:43;;;;;;;;;;;;;;;-2.66;100.00;101552.69;5089603;28;19928;-67
2020/12/02 06:41:30;;;;;;;;;;;;;;;-2.64;100.00;101549.09;5089239;28;19931;-67
2020/12/02 06:44:01;;;;;;;;;;;;;;;-2.65;100.00;101550.00;5095481;28;19928;-67
2020/12/02 06:46:46;;;;;;;;;;;;;;;-2.62;100.00;101544.66;5097689;28;20032;-67
2020/12/02 06:49:11;;;;;;;;;;;;;;;-2.59;100.00;101544.59;5101697;28;20362;-67
2020/12/02 06:51:37;;;;;;;;;;;;;;;-2.56;100.00;101541.91;5105776;28;19927;-67
2020/12/02 06:54:03;;;;;;;;;;;;;;;-2.53;100.00;101544.50;5112513;28;19931;-67
2020/12/02 06:56:30;;;;;;;;;;;;;;;-2.53;100.00;101539.19;5095767;28;19952;-67
2020/12/02 06:59:03;;;;;;;;;;;;;;;-2.52;100.00;101540.94;5095024;28;20300;-67
2020/12/02 07:01:30;;;;;;;;;;;;;;;-2.52;100.00;101540.09;5089508;28;20027;-67
2020/12/02 07:03:59;;;;;;;;;;;;;;;-2.48;100.00;101532.94;5094778;28;20026;-66
2020/12/02 07:06:25;;;;;;;;;;;;;;;-2.47;100.00;101540.00;5114112;28;19966;-67
2020/12/02 07:09:00;;;;;;;;;;;;;;;-2.48;100.00;101533.81;5113911;28;20008;-66
2020/12/02 07:11:26;;;;;;;;;;;;;;;-2.42;100.00;101540.81;5095229;28;19981;-67
2020/12/02 07:13:53;;;;;;;;;;;;;;;-2.40;100.00;101529.25;5104055;28;19959;-67
2020/12/02 07:16:22;;;;;;;;;;;;;;;-2.34;100.00;101525.63;5096316;27;19932;-67
2020/12/02 07:18:53;;;;;;;;;;;;;;;-2.29;100.00;101534.41;5097877;28;19982;-68
2020/12/02 07:21:25;;;;;;;;;;;;;;;-2.24;100.00;101534.38;5092419;28;19931;-68
2020/12/02 07:23:52;;;;;;;;;;;;;;;-2.16;100.00;101526.25;5097587;28;19931;-67
2020/12/02 07:26:19;;;;;;;;;;;;;;;-2.13;100.00;101531.53;5095008;28;20443;-66
2020/12/02 07:28:45;;;;;;;;;;;;;;;-2.12;100.00;101527.97;5097405;28;20005;-66
2020/12/02 07:31:15;;;;;;;;;;;;;;;-2.09;100.00;101533.25;5093954;28;19940;-66
2020/12/02 07:33:53;;;;;;;;;;;;;;;-2.02;100.00;101532.22;5109265;28;19931;-66
2020/12/02 07:36:23;;;;;;;;;;;;;;;-1.97;100.00;101527.72;5108336;28;19924;-66
2020/12/02 07:38:57;;;;;;;;;;;;;;;-1.94;100.00;101525.00;5094241;28;20007;-66
2020/12/02 07:41:23;;;;;;;;;;;;;;;-1.89;100.00;101522.28;5095552;28;20023;-67
2020/12/02 07:43:49;;;;;;;;;;;;;;;-1.85;100.00;101524.84;5094085;28;19936;-66
2020/12/02 07:46:16;;;;;;;;;;;;;;;-1.81;100.00;101517.69;5093003;28;19979;-66
2020/12/02 07:48:43;;;;;;;;;;;;;;;-1.75;100.00;101524.69;5094287;28;20317;-66
2020/12/02 07:51:12;;;;;;;;;;;;;;;-1.74;100.00;101516.72;5100928;28;19970;-66
2020/12/02 07:53:41;;;;;;;;;;;;;;;-1.72;100.00;101516.69;5103534;28;20031;-66
2020/12/02 07:56:12;;;;;;;;;;;;;;;-1.71;100.00;101523.72;5101614;28;19935;-66
2020/12/02 07:58:40;;;;;;;;;;;;;;;-1.68;100.00;101523.69;5114130;28;19928;-67
2020/12/02 08:01:07;;;;;;;;;;;;;;;-1.67;100.00;101521.91;5106413;27;20504;-66
2020/12/02 08:03:34;;;;;;;;;;;;;;;-1.59;100.00;101518.22;5098043;28;19924;-66
2020/12/02 08:06:04;;;;;;;;;;;;;;;-1.49;100.00;101518.03;5093488;28;19924;-67
2020/12/02 08:08:30;;;;;;;;;;;;;;;-1.44;100.00;101522.38;5092125;28;19975;-66
2020/12/02 08:11:04;;;;;;;;;;;;;;;-1.38;100.00;101519.59;5113163;28;20356;-66
2020/12/02 08:13:31;;;;;;;;;;;;;;;-1.33;100.00;101524.84;5097947;28;19924;-66
2020/12/02 08:15:58;;;;;;;;;;;;;;;-1.29;100.00;101515.88;5097473;28;19962;-67
2020/12/02 08:18:24;;;;;;;;;;;;;;;-1.25;100.00;101512.25;5097538;28;19930;-67
2020/12/02 08:20:51;;;;;;;;;;;;;;;-1.20;100.00;101515.69;5097963;28;19951;-66
2020/12/02 08:23:21;;;;;;;;;;;;;;;-1.16;100.00;101519.19;5094392;28;19924;-66
2020/12/02 08:25:52;;;;;;;;;;;;;;;-1.09;100.00;101512.81;5097319;28;19932;-66
2020/12/02 08:28:22;;;;;;;;;;;;;;;-1.02;100.00;101518.91;5090533;28;19971;-66
2020/12/02 08:30:57;;;;;;;;;;;;;;;-0.95;100.00;101520.53;5081465;28;19935;-66
2020/12/02 08:33:23;;;;;;;;;;;;;;;-0.89;100.00;101516.88;5091751;28;20350;-66
2020/12/02 08:35:50;;;;;;;;;;;;;;;-0.83;100.00;101513.19;5092791;28;19925;-66
2020/12/02 08:38:23;;;;;;;;;;;;;;;-0.76;100.00;101514.81;5091811;28;20312;-66
2020/12/02 08:40:50;;;;;;;;;;;;;;;-0.69;100.00;101505.78;5092900;28;19951;-66
2020/12/02 08:43:17;;;;;;;;;;;;;;;-0.61;100.00;101503.81;5092962;28;19927;-65
2020/12/02 08:45:52;;;;;;;;;;;;;;;-0.57;100.00;101502.81;5072115;28;19986;-66
2020/12/02 08:48:18;;;;;;;;;;;;;;;-0.51;100.00;101496.47;5083678;28;19963;-66
2020/12/02 08:50:44;;;;;;;;;;;;;;;-0.44;100.00;101492.78;5101100;28;19996;-66
2020/12/02 08:53:09;;;;;;;;;;;;;;;-0.39;100.00;101489.97;5092368;28;19928;-66
2020/12/02 08:55:35;;;;;;;;;;;;;;;-0.33;100.00;101487.19;5096675;28;19928;-66
2020/12/02 08:58:01;;;;;;;;;;;;;;;-0.25;100.00;101490.53;5100911;28;19931;-66
2020/12/02 09:00:27;;;;;;;;;;;;;;;-0.17;100.00;101493.88;5092763;28;20015;-66
2020/12/02 09:02:53;;;;;;;;;;;;;;;-0.11;100.00;101486.66;5091095;28;20377;-66
2020/12/02 09:05:19;;;;;;;;;;;;;;;-0.06;100.00;101490.09;5091480;28;19963;-66
2020/12/02 09:07:45;;;;;;;;;;;;;;;0.01;100.00;101483.66;5090953;28;19928;-66
2020/12/02 09:10:11;;;;;;;;;;;;;;;0.06;100.00;101480.91;5103713;28;19928;-66
2020/12/02 09:12:36;;;;;;;;;;;;;;;0.11;100.00;101473.66;5112924;27;19928;-66
2020/12/02 09:15:03;;;;;;;;;;;;;;;0.16;100.00;101475.28;5101139;28;19969;-65
2020/12/02 09:17:28;;;;;;;;;;;;;;;0.16;100.00;101472.63;5091949;28;19924;-65
2020/12/02 09:19:55;;;;;;;;;;;;;;;0.20;100.00;101465.41;5092487;28;19977;-65
2020/12/02 09:22:21;;;;;;;;;;;;;;;0.25;100.00;101465.28;5096482;28;20011;-65
2020/12/02 09:24:47;;;;;;;;;;;;;;;0.32;100.00;101470.41;5108670;28;20281;-66
2020/12/02 09:27:13;;;;;;;;;;;;;;;0.41;100.00;101468.41;5104388;28;19977;-65
2020/12/02 09:29:39;;;;;;;;;;;;;;;0.49;100.00;101467.31;5092158;28;20022;-65
2020/12/02 09:32:05;;;;;;;;;;;;;;;0.51;100.00;101464.59;5110642;28;19924;-66
2020/12/02 09:34:31;;;;;;;;;;;;;;;0.42;100.00;101457.69;5112573;28;20385;-66
2020/12/02 09:36:58;;;;;;;;;;;;;;;0.46;100.00;101448.66;5102971;27;20043;-67
2020/12/02 09:39:24;;;;;;;;;;;;;;;0.56;100.00;101451.06;5095284;28;20023;-67
2020/12/02 09:42:03;;;;;;;;;;;;;;;0.64;100.00;101449.06;5101358;28;20312;-67
2020/12/02 09:44:31;;;;;;;;;;;;;;;0.65;100.00;101448.16;5092201;28;21649;-66
2020/12/02 09:46:59;;;;;;;;;;;;;;;0.66;100.00;101442.75;5107976;28;19928;-66
2020/12/02 09:49:25;;;;;;;;;;;;;;;0.71;100.00;101444.41;5110467;28;19969;-66
2020/12/02 09:51:52;;;;;;;;;;;;;;;0.69;100.00;101446.28;5091726;28;19924;-66
2020/12/02 09:54:19;;;;;;;;;;;;;;;0.74;100.00;101444.34;5091839;28;20014;-65
2020/12/02 09:56:45;;;;;;;;;;;;;;;0.82;100.00;101437.84;5111891;28;20015;-65
2020/12/02 09:59:12;;;;;;;;;;;;;;;0.80;100.00;101441.47;5101102;28;20652;-66
2020/12/02 10:01:44;;;;;;;;;;;;;;;0.81;100.00;101433.41;5091645;28;19928;-66
2020/12/02 10:04:23;;;;;;;;;;;;;;;0.87;100.00;101435.06;5093240;28;19951;-66
2020/12/02 10:06:55;;;;;;;;;;;;;;;0.61;100.00;101433.13;5091317;28;20484;-66
2020/12/02 10:09:43;;;;;;;;;;;;;;;0.50;100.00;101420.94;5091199;28;21424;-65
2020/12/02 10:12:14;;;;;;;;;;;;;;;0.45;100.00;101419.31;5091592;28;20377;-66
2020/12/02 10:14:53;;;;;;;;;;;;;;;0.52;100.00;101418.22;5105761;28;19924;-65
2020/12/02 10:17:27;;;;;;;;;;;;;;;0.61;100.00;101420.63;5104973;28;19959;-65
2020/12/02 10:20:02;;;;;;;;;;;;;;;0.49;100.00;101411.19;5093296;28;19928;-65
2020/12/02 10:22:39;;;;;;;;;;;;;;;0.45;100.00;101405.97;5098174;28;19927;-65
2020/12/02 10:25:19;;;;;;;;;;;;;;;0.54;100.00;101408.38;5104924;28;19924;-65
2020/12/02 10:27:57;;;;;;;;;;;;;;;0.62;100.00;101413.50;5091559;28;19928;-65
2020/12/02 10:30:25;;;;;;;;;;;;;;;0.58;100.00;101406.50;5091316;28;20407;-67
2020/12/02 10:33:03;;;;;;;;;;;;;;;0.59;100.00;101402.88;5091353;28;19924;-65
2020/12/02 10:35:30;;;;;;;;;;;;;;;0.63;100.00;101396.56;5091250;28;19925;-65
2020/12/02 10:37:58;;;;;;;;;;;;;;;0.61;100.00;101393.91;5106720;28;19924;-65
2020/12/02 10:40:27;;;;;;;;;;;;;;;0.58;100.00;101386.00;5111809;28;20106;-65
2020/12/02 10:43:01;;;;;;;;;;;;;;;0.63;100.00;101384.06;5097574;28;19924;-66
2020/12/02 10:45:26;;;;;;;;;;;;;;;0.65;100.00;101376.84;5102665;28;20030;-65
2020/12/02 10:47:59;;;;;;;;;;;;;;;0.58;100.00;101369.97;5091101;28;19931;-65
2020/12/02 10:50:25;;;;;;;;;;;;;;;0.67;100.00;101368.81;5103597;28;19928;-65
2020/12/02 10:52:52;;;;;;;;;;;;;;;0.56;100.00;101354.88;5111429;28;20016;-65
2020/12/02 10:55:19;;;;;;;;;;;;;;;0.60;100.00;101352.09;5101068;28;19977;-65
2020/12/02 10:57:54;;;;;;;;;;;;;;;0.58;100.00;101345.03;5101199;28;20305;-65
2020/12/02 11:00:19;;;;;;;;;;;;;;;0.61;100.00;101343.13;5091142;28;19924;-65
2020/12/02 11:02:45;;;;;;;;;;;;;;;0.69;100.00;101337.56;5089740;28;20023;-65
2020/12/02 11:05:11;;;;;;;;;;;;;;;0.73;100.00;101335.69;5099500;28;19963;-65
2020/12/02 11:07:41;;;;;;;;;;;;;;;0.84;100.00;101328.19;5111185;28;19997;-65
2020/12/02 11:10:08;;;;;;;;;;;;;;;0.75;100.00;101332.03;5103152;28;20683;-65
2020/12/02 11:12:42;;;;;;;;;;;;;;;0.81;100.00;101323.81;5094332;28;20011;-65
2020/12/02 11:15:16;;;;;;;;;;;;;;;0.83;100.00;101318.44;5094863;28;19940;-65
2020/12/02 11:17:54;;;;;;;;;;;;;;;0.83;100.00;101308.63;5094662;28;19924;-65
2020/12/02 11:20:22;;;;;;;;;;;;;;;0.77;100.00;101310.59;5079120;28;19928;-66
2020/12/02 11:23:01;;;;;;;;;;;;;;;0.82;100.00;101304.19;5102509;28;20010;-65
2020/12/02 11:25:28;;;;;;;;;;;;;;;0.80;100.00;101300.72;5074544;28;20357;-65
2020/12/02 11:27:54;;;;;;;;;;;;;;;0.75;100.00;101296.41;5090852;28;20022;-66
2020/12/02 11:30:23;;;;;;;;;;;;;;;0.69;100.00;101294.81;5092983;28;19933;-65
2020/12/02 11:33:04;;;;;;;;;;;;;;;0.69;100.00;101301.97;5094355;28;19924;-66
2020/12/02 11:35:40;;;;;;;;;;;;;;;0.72;100.00;101292.06;5102657;28;20375;-65
2020/12/02 11:38:11;;;;;;;;;;;;;;;0.85;100.00;101281.84;5112721;28;19959;-65
2020/12/02 11:40:41;;;;;;;;;;;;;;;0.87;100.00;101281.78;5097324;28;19923;-68
2020/12/02 11:43:09;;;;;;;;;;;;;;;0.82;100.00;101277.47;5108170;27;19931;-67
2020/12/02 11:45:38;;;;;;;;;;;;;;;0.77;100.00;101283.88;5112613;28;20307;-66
2020/12/02 11:48:08;;;;;;;;;;;;;;;0.89;100.00;101274.59;5113682;28;19977;-66
2020/12/02 11:50:37;;;;;;;;;;;;;;;0.94;100.00;101273.53;5094440;28;20027;-66
2020/12/02 11:53:06;;;;;;;;;;;;;;;0.83;100.00;101263.19;5095095;28;20389;-66
2020/12/02 11:55:33;;;;;;;;;;;;;;;0.85;100.00;101267.59;5093902;28;19967;-66
2020/12/02 11:57:59;;;;;;;;;;;;;;;0.97;100.00;101261.84;5095226;28;19970;-65
2020/12/02 12:00:25;;;;;;;;;;;;;;;1.17;100.00;101261.19;5098945;28;20011;-65
2020/12/02 12:02:58;;;;;;;;;;;;;;;1.39;100.00;101257.78;5110034;28;19943;-65
2020/12/02 12:05:26;;;;;;;;;;;;;;;1.39;100.00;101255.13;5093733;28;20285;-65
2020/12/02 12:08:01;;;;;;;;;;;;;;;1.42;100.00;101253.22;5093155;28;19924;-65
2020/12/02 12:10:33;;;;;;;;;;;;;;;1.34;100.00;101247.25;5096339;28;19924;-65
2020/12/02 12:13:03;;;;;;;;;;;;;;;1.29;100.00;101242.06;5113955;28;20460;-64
2020/12/02 12:15:32;;;;;;;;;;;;;;;1.28;100.00;101236.75;5111311;28;20018;-64
2020/12/02 12:18:02;;;;;;;;;;;;;;;1.36;100.00;101228.47;5093264;28;20468;-64
2020/12/02 12:20:30;;;;;;;;;;;;;;;1.39;100.00;101226.56;5095142;28;20031;-64
2020/12/02 12:23:00;;;;;;;;;;;;;;;1.24;100.00;101230.63;5093013;28;19928;-64
2020/12/02 12:25:27;;;;;;;;;;;;;;;1.17;100.00;101218.41;5093583;28;19977;-64
2020/12/02 12:27:57;;;;;;;;;;;;;;;1.33;100.00;101224.09;5093103;28;19924;-64
2020/12/02 12:30:23;;;;;;;;;;;;;;;1.32;100.00;101212.53;5093535;28;20023;-66
2020/12/02 12:32:52;;;;;;;;;;;;;;;1.25;100.00;101218.16;5095548;28;19924;-64
2020/12/02 12:35:22;;;;;;;;;;;;;;;1.31;100.00;101216.13;5104784;28;19924;-64
2020/12/02 12:37:55;;;;;;;;;;;;;;;1.32;100.00;101211.66;5093059;28;20104;-67